createdAt,value
2018-07-19T00:01:01.060Z,20.50
2018-07-19T00:03:29.281Z,20.40
2018-07-19T00:05:57.451Z,20.30
2018-07-19T00:08:25.650Z,20.30
2018-07-19T00:10:53.885Z,20.30
2018-07-19T00:13:22.609Z,20.20
2018-07-19T00:15:51.040Z,20.20
2018-07-19T00:18:20.291Z,20.20
2018-07-19T00:20:48.508Z,20.20
2018-07-19T00:23:16.730Z,20.20
2018-07-19T00:25:44.891Z,20.10
2018-07-19T00:28:13.152Z,20.10
2018-07-19T00:30:41.312Z,20.00
2018-07-19T00:33:09.493Z,20.00
2018-07-19T00:35:37.682Z,20.00
2018-07-19T00:38:06.142Z,20.00
2018-07-19T00:40:34.379Z,19.90
2018-07-19T00:43:02.564Z,19.90
2018-07-19T00:45:30.956Z,19.80
2018-07-19T00:47:59.171Z,19.80
2018-07-19T00:50:27.371Z,19.90
2018-07-19T00:52:56.454Z,19.80
2018-07-19T00:55:24.694Z,19.80
2018-07-19T00:57:52.861Z,19.80
2018-07-19T01:00:21.070Z,19.80
2018-07-19T01:02:49.276Z,19.70
2018-07-19T01:05:17.516Z,19.60
2018-07-19T01:07:45.730Z,19.60
2018-07-19T01:10:13.910Z,19.60
2018-07-19T01:12:42.050Z,19.50
2018-07-19T01:15:10.266Z,19.50
2018-07-19T01:17:38.468Z,19.50
2018-07-19T01:20:06.644Z,19.40
2018-07-19T01:22:34.806Z,19.40
2018-07-19T01:25:03.015Z,19.40
2018-07-19T01:29:59.202Z,19.30
2018-07-19T01:32:27.367Z,19.30
2018-07-19T01:34:55.587Z,19.30
2018-07-19T01:37:23.847Z,19.30
2018-07-19T01:39:52.093Z,19.20
2018-07-19T01:42:36.417Z,19.20
2018-07-19T01:45:05.949Z,19.20
2018-07-19T01:47:34.151Z,19.10
2018-07-19T01:50:02.465Z,19.20
2018-07-19T01:52:30.717Z,19.20
2018-07-19T01:54:58.878Z,19.10
2018-07-19T01:57:27.025Z,19.10
2018-07-19T01:59:55.779Z,19.10
2018-07-19T02:02:23.908Z,19.10
2018-07-19T02:04:52.122Z,19.00
2018-07-19T02:07:20.308Z,19.00
2018-07-19T02:09:48.583Z,19.00
2018-07-19T02:12:16.885Z,19.00
2018-07-19T02:14:45.044Z,18.90
2018-07-19T02:17:13.338Z,18.90
2018-07-19T02:19:41.531Z,18.80
2018-07-19T02:22:10.376Z,18.80
2018-07-19T02:24:38.574Z,18.70
2018-07-19T02:27:07.035Z,18.70
2018-07-19T02:29:35.141Z,18.70
2018-07-19T02:32:03.398Z,18.60
2018-07-19T02:37:01.684Z,18.60
2018-07-19T02:39:30.009Z,18.60
2018-07-19T02:41:59.561Z,18.50
2018-07-19T02:44:27.858Z,18.50
2018-07-19T02:46:56.093Z,18.40
2018-07-19T02:49:25.642Z,18.40
2018-07-19T02:51:55.106Z,18.40
2018-07-19T02:54:23.215Z,18.40
2018-07-19T02:56:51.422Z,18.40
2018-07-19T02:59:20.176Z,18.40
2018-07-19T03:01:48.403Z,18.30
2018-07-19T03:04:16.677Z,18.30
2018-07-19T03:09:13.700Z,18.20
2018-07-19T03:11:42.323Z,18.30
2018-07-19T03:14:12.035Z,18.20
2018-07-19T03:16:40.748Z,18.20
2018-07-19T03:19:09.002Z,18.20
2018-07-19T03:21:38.757Z,18.10
2018-07-19T03:24:07.475Z,18.10
2018-07-19T03:26:35.955Z,18.10
2018-07-19T03:29:05.456Z,18.10
2018-07-19T03:31:33.635Z,18.00
2018-07-19T03:34:03.073Z,18.10
2018-07-19T03:36:31.452Z,18.00
2018-07-19T03:38:59.657Z,18.00
2018-07-19T03:41:28.578Z,18.00
2018-07-19T03:43:56.755Z,18.00
2018-07-19T03:46:26.935Z,18.00
2018-07-19T03:48:55.900Z,18.00
2018-07-19T03:51:25.157Z,18.00
2018-07-19T03:53:53.305Z,18.00
2018-07-19T03:56:22.154Z,18.00
2018-07-19T03:58:51.271Z,18.00
2018-07-19T04:01:19.775Z,18.00
2018-07-19T04:03:48.010Z,18.00
2018-07-19T04:06:16.181Z,18.00
2018-07-19T04:08:44.602Z,18.00
2018-07-19T04:11:15.243Z,18.10
2018-07-19T04:13:44.539Z,18.10
2018-07-19T04:16:12.873Z,18.10
2018-07-19T04:21:10.553Z,18.20
2018-07-19T04:23:38.759Z,18.10
2018-07-19T04:26:08.797Z,18.20
2018-07-19T04:28:37.053Z,18.20
2018-07-19T04:31:05.304Z,18.30
2018-07-19T04:33:34.060Z,18.30
2018-07-19T04:36:02.697Z,18.40
2018-07-19T04:38:31.117Z,18.40
2018-07-19T04:40:59.296Z,18.50
2018-07-19T04:43:27.457Z,18.50
2018-07-19T04:45:57.932Z,18.60
2018-07-19T04:48:28.921Z,18.60
2018-07-19T04:50:57.123Z,18.60
2018-07-19T04:53:26.273Z,18.70
2018-07-19T04:55:54.677Z,18.70
2018-07-19T04:58:22.826Z,18.90
2018-07-19T05:00:50.987Z,19.60
2018-07-19T05:03:19.831Z,20.60
2018-07-19T05:05:49.189Z,21.50
2018-07-19T05:08:17.601Z,22.30
2018-07-19T05:10:45.867Z,23.00
2018-07-19T05:13:14.075Z,23.20
2018-07-19T05:15:42.519Z,23.50
2018-07-19T05:18:10.695Z,23.50
2018-07-19T05:20:38.839Z,23.60
2018-07-19T05:23:08.200Z,23.90
2018-07-19T05:25:36.339Z,24.00
2018-07-19T05:28:04.589Z,23.90
2018-07-19T05:30:33.014Z,24.00
2018-07-19T05:33:01.244Z,24.10
2018-07-19T05:35:29.420Z,24.50
2018-07-19T05:45:24.916Z,24.60
2018-07-19T05:47:53.174Z,24.30
2018-07-19T05:50:21.410Z,24.20
2018-07-19T05:52:51.284Z,24.20
2018-07-19T05:55:19.682Z,24.10
2018-07-19T05:57:49.164Z,24.10
2018-07-19T06:00:17.634Z,24.30
2018-07-19T06:02:45.886Z,24.30
2018-07-19T06:05:14.554Z,24.60
2018-07-19T06:07:43.520Z,24.90
2018-07-19T06:10:12.573Z,25.20
2018-07-19T06:12:40.910Z,25.10
2018-07-19T06:15:09.134Z,24.90
2018-07-19T06:17:38.202Z,24.90
2018-07-19T06:20:07.833Z,24.90
2018-07-19T06:22:35.994Z,25.10
2018-07-19T06:25:04.146Z,25.30
2018-07-19T06:27:33.094Z,25.30
2018-07-19T06:30:02.517Z,25.00
2018-07-19T06:32:31.034Z,24.90
2018-07-19T06:34:59.378Z,25.00
2018-07-19T06:37:27.590Z,25.10
2018-07-19T06:39:55.766Z,24.90
2018-07-19T06:42:24.414Z,24.80
2018-07-19T06:44:52.630Z,24.90
2018-07-19T06:47:21.243Z,24.90
2018-07-19T06:49:49.437Z,24.60
2018-07-19T06:52:17.635Z,24.40
2018-07-19T06:54:46.276Z,24.30
2018-07-19T06:59:43.094Z,24.50
2018-07-19T07:02:12.527Z,24.40
2018-07-19T07:04:41.404Z,24.50
2018-07-19T07:07:09.912Z,24.40
2018-07-19T07:09:38.291Z,24.10
2018-07-19T07:12:06.481Z,23.80
2018-07-19T07:14:34.664Z,23.50
2018-07-19T07:17:05.824Z,23.30
2018-07-19T07:19:34.366Z,23.20
2018-07-19T07:22:03.765Z,23.10
2018-07-19T07:24:32.455Z,23.00
2018-07-19T07:27:01.714Z,23.00
2018-07-19T07:31:58.473Z,23.10
2018-07-19T07:34:27.240Z,23.20
2018-07-19T07:36:55.413Z,23.20
2018-07-19T07:39:24.144Z,23.20
2018-07-19T07:41:52.685Z,23.00
2018-07-19T07:44:21.692Z,23.00
2018-07-19T07:46:51.832Z,23.00
2018-07-19T07:49:21.209Z,23.10
2018-07-19T07:51:50.699Z,23.20
2018-07-19T07:54:19.766Z,23.00
2018-07-19T07:56:48.563Z,23.00
2018-07-19T07:59:16.756Z,23.00
2018-07-19T08:01:45.410Z,23.00
2018-07-19T08:06:43.122Z,23.00
2018-07-19T08:09:11.856Z,23.00
2018-07-19T08:11:40.121Z,22.90
2018-07-19T08:14:08.663Z,22.80
2018-07-19T08:16:36.879Z,22.80
2018-07-19T08:19:05.092Z,22.80
2018-07-19T08:21:33.435Z,22.70
2018-07-19T08:24:01.832Z,22.70
2018-07-19T08:26:30.220Z,22.70
2018-07-19T08:28:58.502Z,22.80
2018-07-19T08:31:26.613Z,22.80
2018-07-19T08:33:54.780Z,22.80
2018-07-19T08:36:22.948Z,22.70
2018-07-19T08:38:51.167Z,22.80
2018-07-19T08:41:19.459Z,22.90
2018-07-19T08:43:48.481Z,23.00
2018-07-19T08:46:16.656Z,23.00
2018-07-19T08:48:44.832Z,22.90
2018-07-19T08:51:12.998Z,22.90
2018-07-19T08:53:41.182Z,22.90
2018-07-19T08:56:09.348Z,22.80
2018-07-19T09:03:33.719Z,22.70
2018-07-19T09:06:01.954Z,22.60
2018-07-19T09:10:58.390Z,22.50
2018-07-19T09:13:26.879Z,22.50
2018-07-19T09:15:55.088Z,22.60
2018-07-19T09:18:23.226Z,22.60
2018-07-19T09:20:51.408Z,22.60
2018-07-19T09:23:20.252Z,22.60
2018-07-19T09:25:48.520Z,22.60
2018-07-19T09:28:16.769Z,22.60
2018-07-19T09:30:44.915Z,22.70
2018-07-19T09:33:13.111Z,22.80
2018-07-19T09:35:41.391Z,22.90
2018-07-19T09:38:09.730Z,22.90
2018-07-19T09:40:38.053Z,22.90
2018-07-19T09:43:06.234Z,22.90
2018-07-19T09:45:34.410Z,22.90
2018-07-19T09:48:02.596Z,22.90
2018-07-19T09:50:31.780Z,22.90
2018-07-19T09:52:59.959Z,22.90
2018-07-19T09:55:29.062Z,22.90
2018-07-19T09:57:57.274Z,22.90
2018-07-19T10:00:31.020Z,22.90
2018-07-19T10:03:00.900Z,23.00
2018-07-19T10:05:29.058Z,23.10
2018-07-19T10:07:57.310Z,23.10
2018-07-19T10:10:25.519Z,23.20
2018-07-19T10:12:53.810Z,23.40
2018-07-19T10:15:22.154Z,23.50
2018-07-19T10:17:50.354Z,23.70
2018-07-19T10:20:18.977Z,23.90
2018-07-19T10:22:47.138Z,24.00
2018-07-19T10:25:15.284Z,24.00
2018-07-19T10:27:43.518Z,24.10
2018-07-19T10:30:11.718Z,24.10
2018-07-19T10:32:40.633Z,24.40
2018-07-19T10:35:08.912Z,24.50
2018-07-19T10:37:37.608Z,24.60
2018-07-19T10:40:07.506Z,24.70
2018-07-19T10:42:36.006Z,24.70
2018-07-19T10:45:04.384Z,24.80
2018-07-19T10:47:32.643Z,24.90
2018-07-19T10:50:01.431Z,25.00
2018-07-19T10:52:29.829Z,25.10
2018-07-19T10:54:57.968Z,25.20
2018-07-19T10:57:26.262Z,25.30
2018-07-19T10:59:54.447Z,25.30
2018-07-19T11:02:22.647Z,25.40
2018-07-19T11:04:50.812Z,25.40
2018-07-19T11:07:18.980Z,25.60
2018-07-19T11:09:47.820Z,25.50
2018-07-19T11:12:16.546Z,25.50
2018-07-19T11:14:44.935Z,25.40
2018-07-19T11:17:13.267Z,25.40
2018-07-19T11:19:41.398Z,25.30
2018-07-19T11:22:09.725Z,25.10
2018-07-19T11:24:37.925Z,24.90
2018-07-19T11:27:06.597Z,24.80
2018-07-19T11:29:35.085Z,24.80
2018-07-19T11:32:04.415Z,24.60
2018-07-19T11:34:32.649Z,24.50
2018-07-19T11:37:01.677Z,24.40
2018-07-19T11:39:30.259Z,24.30
2018-07-19T11:41:59.575Z,24.10
2018-07-19T11:44:28.145Z,24.00
2018-07-19T11:46:56.371Z,24.00
2018-07-19T11:49:24.660Z,23.90
2018-07-19T11:54:21.473Z,23.90
2018-07-19T11:56:50.865Z,23.90
2018-07-19T11:59:19.735Z,23.90
2018-07-19T12:01:48.757Z,24.00
2018-07-19T12:04:17.019Z,24.20
2018-07-19T12:06:45.807Z,24.30
2018-07-19T12:11:44.001Z,24.30
2018-07-19T12:14:13.279Z,24.20
2018-07-19T12:16:42.352Z,23.90
2018-07-19T12:19:10.811Z,23.70
2018-07-19T12:21:40.195Z,23.60
2018-07-19T12:24:09.691Z,23.50
2018-07-19T12:26:39.456Z,23.50
2018-07-19T12:29:08.376Z,23.60
2018-07-19T12:31:39.012Z,23.60
2018-07-19T12:34:08.741Z,23.70
2018-07-19T12:36:38.869Z,23.70
2018-07-19T12:39:09.928Z,23.60
2018-07-19T12:41:39.919Z,23.60
2018-07-19T12:44:08.799Z,23.60
2018-07-19T12:46:37.397Z,23.60
2018-07-19T12:49:07.764Z,23.60
2018-07-19T12:51:36.176Z,23.70
2018-07-19T12:54:04.679Z,23.80
2018-07-19T12:56:34.693Z,24.00
2018-07-19T12:59:03.258Z,24.10
2018-07-19T13:01:33.103Z,24.10
2018-07-19T13:04:01.367Z,24.10
2018-07-19T13:06:29.589Z,24.10
2018-07-19T13:08:57.778Z,24.20
2018-07-19T13:11:25.967Z,24.20
2018-07-19T13:13:54.529Z,24.20
2018-07-19T13:16:23.290Z,24.20
2018-07-19T13:18:52.323Z,24.10
2018-07-19T13:21:21.310Z,24.20
2018-07-19T13:23:50.078Z,24.20
2018-07-19T13:26:19.430Z,24.30
2018-07-19T13:28:47.849Z,24.50
2018-07-19T13:31:16.058Z,24.50
2018-07-19T13:33:45.392Z,24.60
2018-07-19T13:36:14.417Z,24.80
2018-07-19T13:38:42.601Z,25.00
2018-07-19T13:41:11.048Z,25.10
2018-07-19T13:43:39.687Z,25.20
2018-07-19T13:46:09.784Z,25.30
2018-07-19T13:48:38.278Z,25.40
2018-07-19T13:51:07.051Z,25.50
2018-07-19T13:53:51.759Z,25.80
2018-07-19T13:56:20.225Z,26.00
2018-07-19T13:58:48.428Z,26.30
2018-07-19T14:01:16.862Z,26.60
2018-07-19T14:03:45.127Z,27.00
2018-07-19T14:06:13.642Z,27.20
2018-07-19T14:08:41.792Z,27.30
2018-07-19T14:11:09.938Z,27.20
2018-07-19T14:13:38.262Z,27.00
2018-07-19T14:16:06.429Z,26.90
2018-07-19T14:18:34.981Z,26.80
2018-07-19T14:21:03.127Z,26.70
2018-07-19T14:23:31.264Z,26.60
2018-07-19T14:25:59.480Z,26.60
2018-07-19T14:28:28.253Z,26.70
2018-07-19T14:30:57.084Z,26.80
2018-07-19T14:35:53.532Z,27.10
2018-07-19T14:38:22.424Z,27.30
2018-07-19T14:40:50.631Z,27.40
2018-07-19T14:43:18.842Z,27.30
2018-07-19T14:45:47.239Z,27.40
2018-07-19T14:48:15.685Z,27.50
2018-07-19T14:50:43.873Z,27.70
2018-07-19T14:53:12.351Z,27.40
2018-07-19T14:55:41.724Z,27.30
2018-07-19T14:58:10.451Z,27.20
2018-07-19T15:00:38.611Z,27.20
2018-07-19T15:03:08.045Z,27.10
2018-07-19T15:05:37.459Z,27.10
2018-07-19T15:08:05.987Z,27.20
2018-07-19T15:10:34.118Z,27.30
2018-07-19T15:13:02.277Z,27.40
2018-07-19T15:15:30.463Z,27.40
2018-07-19T15:17:59.047Z,27.30
2018-07-19T15:20:27.435Z,27.20
2018-07-19T15:22:55.648Z,26.90
2018-07-19T15:25:24.011Z,26.60
2018-07-19T15:27:52.988Z,26.30
2018-07-19T15:30:21.735Z,26.10
2018-07-19T15:32:51.224Z,26.10
2018-07-19T15:35:19.618Z,26.10
2018-07-19T15:37:47.764Z,26.10
2018-07-19T15:40:15.968Z,26.10
2018-07-19T15:42:44.728Z,26.10
2018-07-19T15:45:14.754Z,26.10
2018-07-19T15:47:43.505Z,26.30
2018-07-19T15:50:11.488Z,26.30
2018-07-19T15:52:41.433Z,26.40
2018-07-19T15:55:10.037Z,26.60
2018-07-19T15:57:38.623Z,26.70
2018-07-19T16:00:07.523Z,26.70
2018-07-19T16:02:37.139Z,26.90
2018-07-19T16:05:05.311Z,27.00
2018-07-19T16:07:33.518Z,27.20
2018-07-19T16:10:02.463Z,27.20
2018-07-19T16:12:31.455Z,27.10
2018-07-19T16:15:00.068Z,27.10
2018-07-19T16:17:28.751Z,27.10
2018-07-19T16:19:58.056Z,27.10
2018-07-19T16:22:27.492Z,27.10
2018-07-19T16:24:56.813Z,27.00
2018-07-19T16:27:25.679Z,27.00
2018-07-19T16:29:56.642Z,27.00
2018-07-19T16:37:23.982Z,26.70
2018-07-19T16:39:53.387Z,26.70
2018-07-19T16:42:21.535Z,26.60
2018-07-19T16:44:51.488Z,26.50
2018-07-19T16:47:20.188Z,26.30
2018-07-19T16:49:49.177Z,26.30
2018-07-19T16:52:19.236Z,26.30
2018-07-19T16:54:47.882Z,26.20
2018-07-19T16:57:19.732Z,26.10
2018-07-19T16:59:47.866Z,26.20
2018-07-19T17:02:16.023Z,26.10
2018-07-19T17:04:45.046Z,26.00
2018-07-19T17:09:41.398Z,25.90
2018-07-19T17:12:09.704Z,25.80
2018-07-19T17:14:38.454Z,25.70
2018-07-19T17:17:07.557Z,25.70
2018-07-19T17:24:32.280Z,25.60
2018-07-19T17:27:01.272Z,25.50
2018-07-19T17:29:30.472Z,25.40
2018-07-19T17:31:58.622Z,25.40
2018-07-19T17:34:28.728Z,25.30
2018-07-19T17:36:57.450Z,25.30
2018-07-19T17:39:26.916Z,25.30
2018-07-19T17:41:58.121Z,25.10
2018-07-19T17:44:26.864Z,25.10
2018-07-19T17:46:55.420Z,25.10
2018-07-19T17:49:24.133Z,25.00
2018-07-19T17:51:53.672Z,25.00
2018-07-19T17:54:21.889Z,25.00
2018-07-19T17:59:18.160Z,24.90
2018-07-19T18:01:47.313Z,24.80
2018-07-19T18:04:15.746Z,24.70
2018-07-19T18:09:12.374Z,24.60
2018-07-19T18:11:41.211Z,24.50
2018-07-19T18:14:09.430Z,24.40
2018-07-19T18:16:38.040Z,24.40
2018-07-19T18:19:06.926Z,24.40
2018-07-19T18:24:04.234Z,24.30
2018-07-19T18:26:33.128Z,24.20
2018-07-19T18:29:01.318Z,24.10
2018-07-19T18:31:29.494Z,24.00
2018-07-19T18:33:57.794Z,24.00
2018-07-19T18:36:25.988Z,23.90
2018-07-19T18:41:23.377Z,23.70
2018-07-19T18:43:51.578Z,23.60
2018-07-19T18:46:19.974Z,23.60
2018-07-19T18:48:48.272Z,23.50
2018-07-19T18:51:16.502Z,23.40
2018-07-19T18:53:44.705Z,23.40
2018-07-19T18:56:12.939Z,23.30
2018-07-19T18:58:41.123Z,23.20
2018-07-19T19:03:38.682Z,23.00
2018-07-19T19:06:06.906Z,23.10
2018-07-19T19:11:03.683Z,22.90
2018-07-19T19:13:32.201Z,22.90
2018-07-19T19:16:01.015Z,22.80
2018-07-19T19:18:29.609Z,22.70
2018-07-19T19:20:58.117Z,22.60
2018-07-19T19:23:26.482Z,22.60
2018-07-19T19:28:23.361Z,22.50
2018-07-19T19:30:51.691Z,22.40
2018-07-19T19:33:19.980Z,22.40
2018-07-19T19:35:48.459Z,22.30
2018-07-19T19:38:16.819Z,22.20
2018-07-19T19:40:45.184Z,22.10
2018-07-19T19:43:14.687Z,22.10
2018-07-19T19:45:43.272Z,22.00
2018-07-19T19:48:12.158Z,22.00
2018-07-19T19:50:40.708Z,21.90
2018-07-19T19:53:09.153Z,21.80
2018-07-19T19:58:05.583Z,21.70
2018-07-19T20:00:34.117Z,21.60
2018-07-19T20:03:02.407Z,21.60
2018-07-19T20:05:30.804Z,21.40
2018-07-19T20:07:59.261Z,21.40
2018-07-19T20:10:27.645Z,21.40
2018-07-19T20:12:56.239Z,21.30
2018-07-19T20:15:24.653Z,21.20
2018-07-19T20:17:53.341Z,21.10
2018-07-19T20:20:21.715Z,21.00
2018-07-19T20:22:51.468Z,21.00
2018-07-19T20:25:20.741Z,21.00
2018-07-19T20:27:49.004Z,20.90
2018-07-19T20:30:17.229Z,20.80
2018-07-19T20:32:45.438Z,20.80
2018-07-19T20:37:41.649Z,20.60
2018-07-19T20:40:09.967Z,20.50
2018-07-19T20:42:38.289Z,20.50
2018-07-19T20:45:07.075Z,20.40
2018-07-19T20:47:35.275Z,20.40
2018-07-19T20:50:04.060Z,20.40
2018-07-19T20:52:32.243Z,20.30
2018-07-19T20:55:00.484Z,20.30
2018-07-19T20:57:28.687Z,20.20
2018-07-19T20:59:57.059Z,20.10
2018-07-19T21:02:25.236Z,20.10
2018-07-19T21:04:53.393Z,20.10
2018-07-19T21:07:21.583Z,20.00
2018-07-19T21:09:49.826Z,20.00
2018-07-19T21:12:18.066Z,19.90
2018-07-19T21:14:46.402Z,19.90
2018-07-19T21:17:14.654Z,19.80
2018-07-19T21:19:42.827Z,19.80
2018-07-19T21:22:11.111Z,19.70
2018-07-19T21:24:40.277Z,19.70
2018-07-19T21:27:08.422Z,19.60
2018-07-19T21:29:36.776Z,19.60
2018-07-19T21:32:05.028Z,19.60
2018-07-19T21:34:33.350Z,19.60
2018-07-19T21:37:01.626Z,19.60
2018-07-19T21:39:29.856Z,19.50
2018-07-19T21:41:58.010Z,19.50
2018-07-19T21:44:26.822Z,19.50
2018-07-19T21:46:54.962Z,19.50
2018-07-19T21:49:23.097Z,19.40
2018-07-19T21:51:51.222Z,19.40
2018-07-19T21:54:19.359Z,19.40
2018-07-19T21:56:47.598Z,19.40
2018-07-19T21:59:15.994Z,19.40
2018-07-19T22:01:44.195Z,19.40
2018-07-19T22:04:13.143Z,19.30
2018-07-19T22:06:41.295Z,19.30
2018-07-19T22:09:11.673Z,19.30
2018-07-19T22:11:40.027Z,19.30
2018-07-19T22:14:08.539Z,19.20
2018-07-19T22:19:06.704Z,19.20
2018-07-19T22:21:34.874Z,19.20
2018-07-19T22:24:03.136Z,19.20
2018-07-19T22:26:32.336Z,19.10
2018-07-19T22:29:00.529Z,19.10
2018-07-19T22:31:28.658Z,19.00
2018-07-19T22:36:24.834Z,19.00
2018-07-19T22:38:53.002Z,18.90
2018-07-19T22:41:21.160Z,18.90
2018-07-19T22:43:49.262Z,18.80
2018-07-19T22:46:17.496Z,18.80
2018-07-19T22:48:45.711Z,18.80
2018-07-19T22:51:13.875Z,18.80
2018-07-19T22:53:42.058Z,18.80
2018-07-19T22:56:10.464Z,18.80
2018-07-19T22:58:38.854Z,18.80
2018-07-19T23:01:07.564Z,18.80
2018-07-19T23:03:35.983Z,18.80
2018-07-19T23:06:04.225Z,18.80
2018-07-19T23:08:32.576Z,18.70
2018-07-19T23:11:00.829Z,18.60
2018-07-19T23:15:57.047Z,18.50
2018-07-19T23:18:25.185Z,18.50
2018-07-19T23:20:53.332Z,18.40
2018-07-19T23:23:21.458Z,18.40
2018-07-19T23:25:49.574Z,18.40
2018-07-19T23:28:17.730Z,18.40
2018-07-19T23:30:45.953Z,18.40
2018-07-19T23:33:14.071Z,18.40
2018-07-19T23:35:47.777Z,18.30
2018-07-19T23:38:23.406Z,18.30
2018-07-19T23:40:52.639Z,18.20
2018-07-19T23:43:24.783Z,18.20
2018-07-19T23:45:57.599Z,18.10
2018-07-19T23:48:25.739Z,18.00
2018-07-19T23:50:53.928Z,18.00
2018-07-19T23:53:22.183Z,18.00
2018-07-19T23:58:18.219Z,17.90
